ACA858 CYYZ-EGLL
Flight info
| Callsign | ACA858 |
|---|---|
| Flight time | N/A |
| Altitude | 35000 |
| Route | BOMET8 IPTOS Q921 SOKYE/N0412F170 T781 IMORI T660 ANATI/N0491F350 DCT RIKAL DCT H5252/M084F350 DCT 5350N DCT H5348 DCT 5445N DCT H5443 DCT 5540N DCT H5538 DCT 5635N DCT H5632 DCT H5631 DCT H5628 DCT H5625 DCT H5621 DCT H5618 DCT BILTO/N0480F350 DCT RUXIN DCT MIMKU/N0470F250 N562 MAC/N0477F380 DCT QQ1/N0481F370 DCT VYL DCT WD2 DCT FITBO FITB2H |
| Aircraft | B77W/H-SDE1E2E3FGHIJ2J3J4J5M1RWXY/LB1D1 |
Departure
| Time | N/A |
|---|---|
| Airport | Toronto Pearson International Airport (CYYZ) |
Arrival
| Time | 2026-05-04 14:15 |
|---|---|
| Airport | London Heathrow Airport (EGLL) |
| Time | Latitude | Longitude | Altitude | Speed | Heading |
|---|---|---|---|---|---|
| 2026-05-04 12:59 | 55.55306 | -6.49286 | 37063 ft | 493 kts | 103° |
| 2026-05-04 12:59 | 55.53556 | -6.37603 | 37067 ft | 493 kts | 103° |
| 2026-05-04 13:00 | 55.51792 | -6.25892 | 37065 ft | 493 kts | 104° |
| 2026-05-04 13:00 | 55.50015 | -6.14176 | 37067 ft | 492 kts | 103° |
| 2026-05-04 13:01 | 55.48235 | -6.02523 | 37068 ft | 491 kts | 103° |
| 2026-05-04 13:01 | 55.46433 | -5.90862 | 37058 ft | 491 kts | 105° |
| 2026-05-04 13:02 | 55.43508 | -5.80043 | 37061 ft | 493 kts | 124° |
| 2026-05-04 13:02 | 55.38829 | -5.71276 | 37062 ft | 494 kts | 142° |
| 2026-05-04 13:03 | 55.32812 | -5.65415 | 37062 ft | 493 kts | 160° |
| 2026-05-04 13:03 | 55.26318 | -5.61512 | 37059 ft | 492 kts | 161° |
| 2026-05-04 13:04 | 55.19793 | -5.57769 | 37065 ft | 492 kts | 161° |
| 2026-05-04 13:04 | 55.13255 | -5.54080 | 37069 ft | 492 kts | 162° |
| 2026-05-04 13:05 | 55.06743 | -5.50445 | 37073 ft | 491 kts | 162° |
| 2026-05-04 13:05 | 55.00247 | -5.46844 | 37069 ft | 491 kts | 162° |
| 2026-05-04 13:06 | 54.93725 | -5.43249 | 37072 ft | 490 kts | 162° |
| 2026-05-04 13:06 | 54.87262 | -5.39702 | 37066 ft | 492 kts | 161° |
| 2026-05-04 13:07 | 54.80714 | -5.36122 | 37066 ft | 491 kts | 161° |
| 2026-05-04 13:07 | 54.74195 | -5.32573 | 37068 ft | 491 kts | 162° |
| 2026-05-04 13:08 | 54.67685 | -5.29040 | 37068 ft | 491 kts | 162° |
| 2026-05-04 13:08 | 54.61195 | -5.25530 | 37067 ft | 491 kts | 162° |
| 2026-05-04 13:09 | 54.54660 | -5.22007 | 37068 ft | 492 kts | 162° |
| 2026-05-04 13:09 | 54.48186 | -5.18530 | 37069 ft | 491 kts | 162° |
| 2026-05-04 13:10 | 54.41690 | -5.15053 | 37068 ft | 491 kts | 161° |
| 2026-05-04 13:10 | 54.35158 | -5.11567 | 37071 ft | 490 kts | 161° |
| 2026-05-04 13:11 | 54.28666 | -5.08115 | 37070 ft | 489 kts | 161° |
| 2026-05-04 13:11 | 54.22113 | -5.04641 | 37070 ft | 489 kts | 161° |
| 2026-05-04 13:12 | 54.15633 | -5.01218 | 37070 ft | 490 kts | 161° |
| 2026-05-04 13:12 | 54.09134 | -4.97796 | 37069 ft | 488 kts | 161° |
| 2026-05-04 13:13 | 54.02653 | -4.94395 | 37069 ft | 488 kts | 161° |
| 2026-05-04 13:13 | 53.96157 | -4.90996 | 37072 ft | 487 kts | 161° |
| 2026-05-04 13:14 | 53.89712 | -4.87636 | 37057 ft | 487 kts | 161° |
| 2026-05-04 13:14 | 53.83214 | -4.84259 | 37048 ft | 488 kts | 161° |
| 2026-05-04 13:15 | 53.76710 | -4.80889 | 37073 ft | 489 kts | 160° |
| 2026-05-04 13:15 | 53.70215 | -4.77536 | 37047 ft | 488 kts | 160° |
| 2026-05-04 13:16 | 53.63712 | -4.74188 | 37052 ft | 488 kts | 160° |
| 2026-05-04 13:16 | 53.57237 | -4.70866 | 37056 ft | 487 kts | 160° |
| 2026-05-04 13:17 | 53.50722 | -4.67535 | 37027 ft | 485 kts | 160° |
| 2026-05-04 13:17 | 53.44264 | -4.64242 | 37051 ft | 486 kts | 160° |
| 2026-05-04 13:18 | 53.37754 | -4.60934 | 37048 ft | 487 kts | 160° |
| 2026-05-04 13:18 | 53.31288 | -4.57603 | 37032 ft | 484 kts | 156° |
| 2026-05-04 13:19 | 53.25388 | -4.52258 | 37023 ft | 478 kts | 139° |
| 2026-05-04 13:19 | 53.20793 | -4.44421 | 37051 ft | 469 kts | 122° |
| 2026-05-04 13:20 | 53.17185 | -4.35432 | 37053 ft | 467 kts | 120° |
| 2026-05-04 13:20 | 53.13573 | -4.26378 | 37041 ft | 468 kts | 121° |
| 2026-05-04 13:21 | 53.09934 | -4.17335 | 37063 ft | 469 kts | 121° |
| 2026-05-04 13:21 | 53.06295 | -4.08357 | 37034 ft | 468 kts | 122° |
| 2026-05-04 13:22 | 53.02661 | -3.99431 | 36991 ft | 466 kts | 122° |
| 2026-05-04 13:22 | 53.00834 | -3.94959 | 36870 ft | 465 kts | 121° |
| 2026-05-04 13:22 | 52.99027 | -3.90547 | 36656 ft | 465 kts | 121° |
| 2026-05-04 13:22 | 52.97210 | -3.86115 | 36481 ft | 465 kts | 121° |
| 2026-05-04 13:23 | 52.95386 | -3.81677 | 36320 ft | 464 kts | 121° |
| 2026-05-04 13:23 | 52.93576 | -3.77283 | 36195 ft | 464 kts | 121° |
| 2026-05-04 13:23 | 52.91742 | -3.72836 | 36118 ft | 463 kts | 121° |
| 2026-05-04 13:23 | 52.89931 | -3.68453 | 35992 ft | 462 kts | 121° |
| 2026-05-04 13:24 | 52.88115 | -3.64065 | 35850 ft | 462 kts | 121° |
| 2026-05-04 13:24 | 52.86298 | -3.59684 | 35729 ft | 462 kts | 121° |
| 2026-05-04 13:24 | 52.84478 | -3.55302 | 35623 ft | 461 kts | 121° |
| 2026-05-04 13:25 | 52.80844 | -3.46578 | 35409 ft | 459 kts | 121° |
| 2026-05-04 13:25 | 52.79033 | -3.42240 | 35335 ft | 458 kts | 121° |
| 2026-05-04 13:25 | 52.77226 | -3.37921 | 35144 ft | 455 kts | 121° |
| 2026-05-04 13:25 | 52.75454 | -3.33694 | 34575 ft | 453 kts | 121° |
| 2026-05-04 13:26 | 52.73675 | -3.29455 | 34090 ft | 446 kts | 121° |
| 2026-05-04 13:26 | 52.71923 | -3.25289 | 33622 ft | 440 kts | 121° |
| 2026-05-04 13:26 | 52.70190 | -3.21173 | 32861 ft | 440 kts | 121° |
| 2026-05-04 13:26 | 52.68444 | -3.17029 | 31833 ft | 444 kts | 121° |
| 2026-05-04 13:27 | 52.66680 | -3.12850 | 30608 ft | 450 kts | 122° |
| 2026-05-04 13:27 | 52.64915 | -3.08675 | 29357 ft | 456 kts | 122° |
| 2026-05-04 13:27 | 52.63096 | -3.04381 | 28491 ft | 455 kts | 122° |
| 2026-05-04 13:27 | 52.61298 | -3.00149 | 28014 ft | 445 kts | 123° |
| 2026-05-04 13:28 | 52.59550 | -2.96040 | 27467 ft | 438 kts | 123° |
| 2026-05-04 13:28 | 52.57811 | -2.91959 | 26797 ft | 434 kts | 123° |
| 2026-05-04 13:28 | 52.56079 | -2.87899 | 26076 ft | 431 kts | 123° |
| 2026-05-04 13:28 | 52.54364 | -2.83885 | 25382 ft | 427 kts | 124° |
| 2026-05-04 13:29 | 52.52686 | -2.79964 | 24710 ft | 423 kts | 124° |
| 2026-05-04 13:29 | 52.51002 | -2.76035 | 24013 ft | 420 kts | 124° |
| 2026-05-04 13:29 | 52.49329 | -2.72137 | 23295 ft | 416 kts | 124° |
| 2026-05-04 13:29 | 52.47657 | -2.68247 | 22594 ft | 413 kts | 125° |
| 2026-05-04 13:30 | 52.46025 | -2.64455 | 21843 ft | 411 kts | 125° |
| 2026-05-04 13:30 | 52.44387 | -2.60656 | 21151 ft | 407 kts | 125° |
| 2026-05-04 13:30 | 52.42754 | -2.56874 | 20463 ft | 404 kts | 125° |
| 2026-05-04 13:30 | 52.41062 | -2.53241 | 19748 ft | 401 kts | 132° |
| 2026-05-04 13:31 | 52.39059 | -2.50105 | 19074 ft | 397 kts | 141° |
| 2026-05-04 13:31 | 52.36806 | -2.47586 | 18378 ft | 393 kts | 151° |
| 2026-05-04 13:31 | 52.34349 | -2.45743 | 18038 ft | 386 kts | 161° |
| 2026-05-04 13:31 | 52.31778 | -2.44511 | 18018 ft | 391 kts | 165° |
| 2026-05-04 13:32 | 52.29126 | -2.43284 | 18017 ft | 392 kts | 160° |
| 2026-05-04 13:32 | 52.26643 | -2.41434 | 18014 ft | 391 kts | 150° |
| 2026-05-04 13:32 | 52.24399 | -2.38889 | 18013 ft | 393 kts | 140° |
| 2026-05-04 13:32 | 52.22586 | -2.35964 | 18001 ft | 389 kts | 131° |
| 2026-05-04 13:33 | 52.21004 | -2.32422 | 17501 ft | 384 kts | 122° |
| 2026-05-04 13:33 | 52.19813 | -2.28537 | 16636 ft | 389 kts | 112° |
| 2026-05-04 13:33 | 52.18911 | -2.24387 | 15880 ft | 389 kts | 110° |
| 2026-05-04 13:33 | 52.18055 | -2.20228 | 15277 ft | 385 kts | 109° |
| 2026-05-04 13:34 | 52.17219 | -2.16116 | 15038 ft | 380 kts | 109° |
| 2026-05-04 13:34 | 52.16396 | -2.12041 | 15025 ft | 383 kts | 109° |
| 2026-05-04 13:34 | 52.15566 | -2.07905 | 15024 ft | 385 kts | 109° |
| 2026-05-04 13:34 | 52.14732 | -2.03735 | 15017 ft | 388 kts | 109° |
| 2026-05-04 13:35 | 52.13895 | -1.99549 | 15023 ft | 388 kts | 109° |
| 2026-05-04 13:35 | 52.12229 | -1.91218 | 15021 ft | 388 kts | 109° |
| 2026-05-04 13:35 | 52.11391 | -1.87034 | 15016 ft | 387 kts | 109° |
| 2026-05-04 13:36 | 52.10562 | -1.82895 | 14994 ft | 377 kts | 109° |
| 2026-05-04 13:36 | 52.09778 | -1.78986 | 15011 ft | 352 kts | 109° |
| 2026-05-04 13:36 | 52.09050 | -1.75365 | 15030 ft | 332 kts | 109° |
| 2026-05-04 13:36 | 52.08344 | -1.71861 | 15020 ft | 316 kts | 109° |
| 2026-05-04 13:37 | 52.07662 | -1.68485 | 15014 ft | 312 kts | 109° |
| 2026-05-04 13:37 | 52.06992 | -1.65172 | 15020 ft | 312 kts | 109° |
| 2026-05-04 13:37 | 52.06306 | -1.61787 | 15021 ft | 313 kts | 109° |
| 2026-05-04 13:37 | 52.05625 | -1.58428 | 15021 ft | 313 kts | 109° |
| 2026-05-04 13:38 | 52.04939 | -1.55051 | 15023 ft | 313 kts | 109° |
| 2026-05-04 13:38 | 52.04262 | -1.51721 | 14763 ft | 308 kts | 109° |
| 2026-05-04 13:38 | 52.03592 | -1.48434 | 14290 ft | 309 kts | 109° |
| 2026-05-04 13:38 | 52.02911 | -1.45096 | 13878 ft | 309 kts | 108° |
| 2026-05-04 13:39 | 52.02365 | -1.42429 | 13585 ft | 307 kts | 108° |
| 2026-05-04 13:39 | 52.01916 | -1.40232 | 13337 ft | 306 kts | 108° |
| 2026-05-04 13:39 | 52.01246 | -1.36966 | 12990 ft | 304 kts | 108° |
| 2026-05-04 13:39 | 52.00583 | -1.33733 | 12617 ft | 302 kts | 109° |
| 2026-05-04 13:40 | 51.99919 | -1.30507 | 12436 ft | 298 kts | 109° |
| 2026-05-04 13:40 | 51.99255 | -1.27280 | 12422 ft | 302 kts | 109° |
| 2026-05-04 13:40 | 51.98593 | -1.24073 | 12424 ft | 301 kts | 109° |
| 2026-05-04 13:40 | 51.97926 | -1.20844 | 12415 ft | 298 kts | 109° |
| 2026-05-04 13:41 | 51.97271 | -1.17678 | 12071 ft | 297 kts | 109° |
| 2026-05-04 13:41 | 51.96592 | -1.14500 | 11633 ft | 297 kts | 113° |
| 2026-05-04 13:41 | 51.95656 | -1.11571 | 11244 ft | 295 kts | 124° |
| 2026-05-04 13:42 | 51.92876 | -1.06755 | 10533 ft | 290 kts | 140° |
| 2026-05-04 13:42 | 51.91594 | -1.04940 | 10232 ft | 289 kts | 140° |
| 2026-05-04 13:42 | 51.90569 | -1.03506 | 9990 ft | 288 kts | 140° |
| 2026-05-04 13:42 | 51.89040 | -1.01390 | 9645 ft | 286 kts | 140° |
| 2026-05-04 13:43 | 51.87517 | -0.99294 | 9298 ft | 284 kts | 140° |
| 2026-05-04 13:43 | 51.86013 | -0.97207 | 8922 ft | 283 kts | 137° |
| 2026-05-04 13:43 | 51.84844 | -0.94671 | 8537 ft | 283 kts | 120° |
| 2026-05-04 13:43 | 51.83934 | -0.91841 | 8200 ft | 282 kts | 116° |
| 2026-05-04 13:44 | 51.83086 | -0.89037 | 8005 ft | 277 kts | 116° |
| 2026-05-04 13:44 | 51.82226 | -0.86203 | 7985 ft | 281 kts | 116° |
| 2026-05-04 13:44 | 51.81364 | -0.83380 | 7990 ft | 280 kts | 116° |
| 2026-05-04 13:44 | 51.80493 | -0.80536 | 7985 ft | 280 kts | 116° |
| 2026-05-04 13:45 | 51.79633 | -0.77731 | 7989 ft | 280 kts | 116° |
| 2026-05-04 13:45 | 51.78764 | -0.74901 | 7986 ft | 280 kts | 116° |
| 2026-05-04 13:45 | 51.77890 | -0.72057 | 7981 ft | 280 kts | 117° |
| 2026-05-04 13:45 | 51.77014 | -0.69214 | 7986 ft | 280 kts | 117° |
| 2026-05-04 13:46 | 51.76148 | -0.66402 | 7978 ft | 280 kts | 117° |
| 2026-05-04 13:46 | 51.75284 | -0.63601 | 7980 ft | 280 kts | 117° |
| 2026-05-04 13:46 | 51.74420 | -0.60804 | 7987 ft | 280 kts | 117° |
| 2026-05-04 13:46 | 51.73539 | -0.57954 | 7984 ft | 280 kts | 117° |
| 2026-05-04 13:47 | 51.72649 | -0.55148 | 7986 ft | 280 kts | 119° |
| 2026-05-04 13:47 | 51.71698 | -0.52470 | 7967 ft | 267 kts | 120° |
| 2026-05-04 13:47 | 51.70743 | -0.50020 | 7972 ft | 252 kts | 132° |
| 2026-05-04 13:47 | 51.69348 | -0.48429 | 7973 ft | 246 kts | 157° |
| 2026-05-04 13:48 | 51.67742 | -0.47437 | 7984 ft | 246 kts | 160° |
| 2026-05-04 13:48 | 51.66122 | -0.46497 | 7986 ft | 246 kts | 160° |
| 2026-05-04 13:48 | 51.64511 | -0.45571 | 7982 ft | 246 kts | 160° |
| 2026-05-04 13:48 | 51.62884 | -0.44638 | 7976 ft | 246 kts | 160° |
| 2026-05-04 13:49 | 51.61274 | -0.43712 | 7982 ft | 246 kts | 160° |
| 2026-05-04 13:49 | 51.59775 | -0.42388 | 7970 ft | 246 kts | 135° |
| 2026-05-04 13:49 | 51.58883 | -0.40087 | 7969 ft | 248 kts | 105° |
| 2026-05-04 13:49 | 51.58693 | -0.37326 | 7978 ft | 249 kts | 91° |
| 2026-05-04 13:50 | 51.58671 | -0.34527 | 7978 ft | 248 kts | 91° |
| 2026-05-04 13:50 | 51.58660 | -0.31787 | 7775 ft | 246 kts | 91° |
| 2026-05-04 13:50 | 51.58648 | -0.29035 | 7456 ft | 248 kts | 91° |
| 2026-05-04 13:50 | 51.58631 | -0.26258 | 7214 ft | 246 kts | 91° |
| 2026-05-04 13:51 | 51.58607 | -0.23545 | 6947 ft | 245 kts | 91° |
| 2026-05-04 13:51 | 51.58575 | -0.20776 | 6674 ft | 245 kts | 91° |
| 2026-05-04 13:51 | 51.58539 | -0.18052 | 6443 ft | 243 kts | 91° |
| 2026-05-04 13:51 | 51.58499 | -0.15340 | 6192 ft | 242 kts | 91° |
| 2026-05-04 13:52 | 51.58411 | -0.09976 | 5701 ft | 239 kts | 92° |
| 2026-05-04 13:52 | 51.58025 | -0.07426 | 5451 ft | 238 kts | 119° |
| 2026-05-04 13:52 | 51.56875 | -0.05532 | 5122 ft | 239 kts | 152° |
| 2026-05-04 13:53 | 51.55289 | -0.04888 | 4849 ft | 238 kts | 182° |
| 2026-05-04 13:53 | 51.53722 | -0.05664 | 4563 ft | 238 kts | 214° |
| 2026-05-04 13:53 | 51.52537 | -0.07530 | 4276 ft | 238 kts | 230° |
| 2026-05-04 13:54 | 51.50432 | -0.11644 | 3778 ft | 237 kts | 231° |
| 2026-05-04 13:54 | 51.49392 | -0.13681 | 3505 ft | 238 kts | 231° |
| 2026-05-04 13:54 | 51.47712 | -0.18030 | 3013 ft | 220 kts | 265° |
| 2026-05-04 13:55 | 51.47733 | -0.20399 | 2985 ft | 202 kts | 275° |
| 2026-05-04 13:55 | 51.47800 | -0.24596 | 2970 ft | 176 kts | 272° |
| 2026-05-04 13:55 | 51.47797 | -0.26516 | 2974 ft | 172 kts | 272° |
| 2026-05-04 13:56 | 51.47794 | -0.28442 | 2978 ft | 172 kts | 272° |
| 2026-05-04 13:56 | 51.47792 | -0.30370 | 2980 ft | 170 kts | 272° |
| 2026-05-04 13:56 | 51.47785 | -0.34117 | 2508 ft | 166 kts | 272° |
| 2026-05-04 13:57 | 51.47782 | -0.35936 | 2322 ft | 158 kts | 272° |
| 2026-05-04 13:57 | 51.47779 | -0.37669 | 2184 ft | 155 kts | 272° |
| 2026-05-04 13:58 | 51.47661 | -0.42820 | 2197 ft | 157 kts | 273° |
| 2026-05-04 13:58 | 51.47609 | -0.46689 | 2567 ft | 178 kts | 269° |
| 2026-05-04 13:58 | 51.47542 | -0.48677 | 2867 ft | 180 kts | 269° |
| 2026-05-04 13:59 | 51.47576 | -0.50675 | 2973 ft | 179 kts | 289° |
| 2026-05-04 13:59 | 51.48288 | -0.52222 | 2970 ft | 173 kts | 330° |
| 2026-05-04 13:59 | 51.50389 | -0.51549 | 2965 ft | 170 kts | 55° |
| 2026-05-04 14:00 | 51.50822 | -0.49775 | 2982 ft | 172 kts | 71° |
| 2026-05-04 14:00 | 51.51538 | -0.46115 | 2985 ft | 171 kts | 71° |
| 2026-05-04 14:00 | 51.51902 | -0.44274 | 2986 ft | 171 kts | 71° |
| 2026-05-04 14:01 | 51.52263 | -0.42449 | 2986 ft | 172 kts | 71° |
| 2026-05-04 14:01 | 51.52624 | -0.40623 | 2987 ft | 171 kts | 71° |
| 2026-05-04 14:01 | 51.52821 | -0.36807 | 2986 ft | 172 kts | 87° |
| 2026-05-04 14:02 | 51.52842 | -0.34891 | 2985 ft | 172 kts | 87° |
| 2026-05-04 14:02 | 51.52862 | -0.32935 | 2986 ft | 172 kts | 87° |
| 2026-05-04 14:02 | 51.52884 | -0.31003 | 2986 ft | 172 kts | 87° |
| 2026-05-04 14:02 | 51.52906 | -0.29097 | 2990 ft | 172 kts | 87° |
| 2026-05-04 14:03 | 51.52932 | -0.27143 | 2993 ft | 174 kts | 87° |
| 2026-05-04 14:03 | 51.52957 | -0.25202 | 2988 ft | 173 kts | 87° |
| 2026-05-04 14:03 | 51.52984 | -0.23283 | 2983 ft | 173 kts | 87° |
| 2026-05-04 14:03 | 51.53012 | -0.21349 | 2981 ft | 173 kts | 87° |
| 2026-05-04 14:04 | 51.52966 | -0.17481 | 2981 ft | 175 kts | 107° |
| 2026-05-04 14:04 | 51.52197 | -0.15982 | 2968 ft | 180 kts | 148° |
| 2026-05-04 14:04 | 51.50976 | -0.15581 | 2977 ft | 183 kts | 176° |
| 2026-05-04 14:05 | 51.48397 | -0.15493 | 2733 ft | 184 kts | 176° |
| 2026-05-04 14:05 | 51.47197 | -0.15017 | 2545 ft | 180 kts | 156° |
| 2026-05-04 14:05 | 51.45958 | -0.14733 | 2499 ft | 182 kts | 185° |
| 2026-05-04 14:06 | 51.44707 | -0.14745 | 2491 ft | 179 kts | 160° |
| 2026-05-04 14:06 | 51.43760 | -0.13568 | 2469 ft | 176 kts | 119° |
| 2026-05-04 14:06 | 51.43515 | -0.11684 | 2474 ft | 172 kts | 89° |
| 2026-05-04 14:06 | 51.43530 | -0.09772 | 2478 ft | 170 kts | 88° |
| 2026-05-04 14:07 | 51.43539 | -0.07858 | 2477 ft | 171 kts | 88° |
| 2026-05-04 14:07 | 51.43547 | -0.05944 | 2475 ft | 171 kts | 84° |
| 2026-05-04 14:07 | 51.44004 | -0.04255 | 2471 ft | 170 kts | 44° |
| 2026-05-04 14:07 | 51.45060 | -0.03538 | 2452 ft | 169 kts | 4° |
| 2026-05-04 14:08 | 51.46261 | -0.03598 | 2466 ft | 170 kts | 2° |
| 2026-05-04 14:08 | 51.47419 | -0.03931 | 2470 ft | 172 kts | 332° |
| 2026-05-04 14:08 | 51.48164 | -0.05418 | 2454 ft | 179 kts | 290° |
| 2026-05-04 14:08 | 51.48107 | -0.07351 | 2458 ft | 173 kts | 253° |
| 2026-05-04 14:09 | 51.47769 | -0.11140 | 2466 ft | 170 kts | 271° |
| 2026-05-04 14:09 | 51.47774 | -0.13026 | 2466 ft | 170 kts | 273° |
| 2026-05-04 14:10 | 51.47796 | -0.16826 | 2468 ft | 170 kts | 272° |
| 2026-05-04 14:10 | 51.47799 | -0.18721 | 2468 ft | 171 kts | 272° |
| 2026-05-04 14:10 | 51.47800 | -0.20650 | 2467 ft | 170 kts | 272° |
| 2026-05-04 14:10 | 51.47800 | -0.22552 | 2467 ft | 172 kts | 272° |
| 2026-05-04 14:11 | 51.47797 | -0.24459 | 2390 ft | 172 kts | 272° |
| 2026-05-04 14:11 | 51.47793 | -0.28241 | 1944 ft | 163 kts | 273° |
| 2026-05-04 14:11 | 51.47793 | -0.30005 | 1744 ft | 156 kts | 272° |
| 2026-05-04 14:12 | 51.47790 | -0.31702 | 1545 ft | 150 kts | 272° |
| 2026-05-04 14:12 | 51.47787 | -0.33335 | 1348 ft | 141 kts | 272° |
| 2026-05-04 14:12 | 51.47781 | -0.36404 | 983 ft | 136 kts | 272° |
| 2026-05-04 14:13 | 51.47778 | -0.37908 | 801 ft | 135 kts | 272° |
| 2026-05-04 14:13 | 51.47774 | -0.39464 | 628 ft | 145 kts | 272° |
| 2026-05-04 14:13 | 51.47772 | -0.41082 | 405 ft | 147 kts | 272° |
| 2026-05-04 14:13 | 51.47769 | -0.42729 | 213 ft | 147 kts | 271° |
| 2026-05-04 14:14 | 51.47768 | -0.44346 | 107 ft | 139 kts | 271° |
| 2026-05-04 14:14 | 51.47765 | -0.46148 | 98 ft | 75 kts | 268° |
| 2026-05-04 14:14 | 51.47758 | -0.46873 | 98 ft | 53 kts | 271° |
| 2026-05-04 14:15 | 51.47711 | -0.47371 | 98 ft | 11 kts | 207° |
| 2026-05-04 14:15 | 51.47578 | -0.47369 | 98 ft | 9 kts | 164° |
| 2026-05-04 14:16 | 51.47576 | -0.47368 | 98 ft | 0 kts | 165° |
| 2026-05-04 14:18 | 51.47520 | -0.47344 | 98 ft | 12 kts | 149° |
| 2026-05-04 14:19 | 51.47491 | -0.47060 | 98 ft | 13 kts | 90° |
| 2026-05-04 14:19 | 51.47492 | -0.46902 | 98 ft | 14 kts | 90° |
| 2026-05-04 14:19 | 51.47504 | -0.46744 | 98 ft | 14 kts | 70° |
| 2026-05-04 14:19 | 51.47514 | -0.46584 | 98 ft | 14 kts | 90° |
| 2026-05-04 14:20 | 51.47516 | -0.46423 | 98 ft | 14 kts | 91° |
| 2026-05-04 14:20 | 51.47514 | -0.46240 | 98 ft | 20 kts | 89° |
| 2026-05-04 14:20 | 51.47516 | -0.45995 | 98 ft | 21 kts | 89° |
| 2026-05-04 14:21 | 51.47507 | -0.45527 | 98 ft | 20 kts | 90° |
| 2026-05-04 14:21 | 51.47508 | -0.45302 | 98 ft | 20 kts | 90° |
| 2026-05-04 14:21 | 51.47509 | -0.45084 | 98 ft | 15 kts | 90° |
| 2026-05-04 14:21 | 51.47508 | -0.45008 | 98 ft | 2 kts | 90° |
| 2026-05-04 14:22 | 51.47508 | -0.44941 | 98 ft | 7 kts | 90° |
| 2026-05-04 14:22 | 51.47508 | -0.44880 | 98 ft | 3 kts | 94° |
| 2026-05-04 14:22 | 51.47499 | -0.44861 | 98 ft | 2 kts | 146° |
| 2026-05-04 14:22 | 51.47481 | -0.44851 | 98 ft | 3 kts | 167° |
| 2026-05-04 14:23 | 51.47440 | -0.44844 | 98 ft | 1 kts | 178° |
| 2026-05-04 14:23 | 51.47430 | -0.44843 | 98 ft | 0 kts | 179° |
| 2026-05-04 14:23 | 51.47428 | -0.44843 | 98 ft | 0 kts | 179° |